Flight Track Log - Related Links

Times and Time Zones

All times are in EDT time to prevent confusion due to time zone crossing. See the KAP644 flight status page for this flight to view local times or setup timezone preferences in your user account.

Time Position Orientation Groundspeed Altitude Reporting Facility
EDT Latitude Longitude Course Direction KTS MPH feet Rate Location/Type
Thu 12:35:52 PM 42.3500 -70.9833 360° North 98 113 400  Level KA90
Thu 12:36:22 PM 42.3500 -70.9833 114° Southeast 96 110 800 867 Climbing KA90
Thu 12:37:22 PM 42.3333 -70.9333 114° Southeast 119 137 1,700 789 Climbing KA90
Thu 12:38:16 PM 42.3000 -70.9167 160° South 124 143 2,300 579 Climbing KA90
Thu 12:39:16 PM 42.2833 -70.9000 144° Southeast 122 140 2,800 500 Climbing KA90
Thu 12:40:16 PM 42.2333 -70.8833 166° South 124 143 3,300 381 Climbing KA90
Thu 12:41:22 PM 42.2000 -70.8833 180° South 142 163 3,600 143 Climbing KA90
Thu 12:42:22 PM 42.1500 -70.8667 166° South 158 182 3,600  Level KA90
Thu 12:44:00 PM 42.0848 -70.8840 160° South  Level FlightAware Approximate
Thu 12:51:00 PM 41.8391 -70.7814 161° South  Level FlightAware Approximate
Thu 12:52:00 PM 41.8041 -70.7654 161° South  Level FlightAware Approximate
Thu 12:53:00 PM 41.7691 -70.7495 161° South  Level FlightAware Approximate
Thu 12:54:00 PM 41.7340 -70.7336 161° South  Level FlightAware Approximate
Thu 12:55:00 PM 41.6984 -70.7202 164° South  Level FlightAware Approximate
Thu 12:56:00 PM 41.6628 -70.7068 164° South  Level FlightAware Approximate
Thu 12:57:00 PM 41.6271 -70.6935 164° South  Level FlightAware Approximate
Thu 12:58:00 PM 41.5915 -70.6801 164° South  Level FlightAware Approximate
Thu 12:59:00 PM 41.5559 -70.6667 164° South  Level FlightAware Approximate
Thu 01:00:00 PM 41.5202 -70.6534 164° South  Level FlightAware Approximate
Thu 01:01:00 PM 41.4846 -70.6401 164° South  Level FlightAware Approximate
Thu 01:02:00 PM 41.4491 -70.6263 163° South  Level FlightAware Approximate
Thu 01:03:00 PM 41.4136 -70.6121 163° South  Level FlightAware Approximate
Thu 01:04:00 PM 41.3934 -70.6139 163° South  Level Estimated
Thu 01:05:00 PM 41.3934 -70.6139 163° South  Level Estimated
Thu 01:06:00 PM 41.3934 -70.6139 163° South  Level Estimated
Thu 01:07:00 PM 41.3934 -70.6139 163° South  Level Estimated
Thu 01:08:00 PM 41.3934 -70.6139 163° South  Level Estimated
Thu 01:09:00 PM 41.3934 -70.6139 163° South  Level Estimated

Login

Don't have an account? Register now (free) for customized features, flight alerts, and more!